sensor_id;sensor_type;location;lat;lon;timestamp;P1;durP1;ratioP1;P2;durP2;ratioP2
14001;SDS011;7076;51.280;12.584;2022-08-21T00:04:51;23.42;;;18.60;;
14001;SDS011;7076;51.280;12.584;2022-08-21T00:09:59;23.25;;;19.15;;
14001;SDS011;7076;51.280;12.584;2022-08-21T00:15:03;23.42;;;19.15;;
14001;SDS011;7076;51.280;12.584;2022-08-21T00:20:09;23.20;;;20.13;;
14001;SDS011;7076;51.280;12.584;2022-08-21T00:25:15;23.80;;;18.95;;
14001;SDS011;7076;51.280;12.584;2022-08-21T00:30:21;24.58;;;19.38;;
14001;SDS011;7076;51.280;12.584;2022-08-21T00:35:27;22.52;;;18.63;;
14001;SDS011;7076;51.280;12.584;2022-08-21T00:40:35;25.20;;;21.20;;
14001;SDS011;7076;51.280;12.584;2022-08-21T00:45:40;20.98;;;18.05;;
14001;SDS011;7076;51.280;12.584;2022-08-21T00:50:44;22.35;;;19.10;;
14001;SDS011;7076;51.280;12.584;2022-08-21T00:55:50;19.52;;;17.08;;
14001;SDS011;7076;51.280;12.584;2022-08-21T01:00:56;21.67;;;18.05;;
14001;SDS011;7076;51.280;12.584;2022-08-21T01:06:00;22.02;;;17.65;;
14001;SDS011;7076;51.280;12.584;2022-08-21T01:11:04;18.17;;;16.05;;
14001;SDS011;7076;51.280;12.584;2022-08-21T01:16:08;19.88;;;16.67;;
14001;SDS011;7076;51.280;12.584;2022-08-21T01:21:14;19.02;;;15.82;;
14001;SDS011;7076;51.280;12.584;2022-08-21T01:26:20;17.63;;;14.93;;
14001;SDS011;7076;51.280;12.584;2022-08-21T01:31:33;17.08;;;15.30;;
14001;SDS011;7076;51.280;12.584;2022-08-21T01:36:38;15.45;;;13.82;;
14001;SDS011;7076;51.280;12.584;2022-08-21T01:41:41;13.80;;;12.35;;
14001;SDS011;7076;51.280;12.584;2022-08-21T01:46:44;12.05;;;10.85;;
14001;SDS011;7076;51.280;12.584;2022-08-21T01:51:48;12.13;;;10.85;;
14001;SDS011;7076;51.280;12.584;2022-08-21T01:56:53;10.85;;;9.80;;
14001;SDS011;7076;51.280;12.584;2022-08-21T02:01:56;11.60;;;9.93;;
14001;SDS011;7076;51.280;12.584;2022-08-21T02:07:00;10.80;;;9.25;;
14001;SDS011;7076;51.280;12.584;2022-08-21T02:12:07;9.95;;;8.82;;
14001;SDS011;7076;51.280;12.584;2022-08-21T02:17:10;11.57;;;9.50;;
14001;SDS011;7076;51.280;12.584;2022-08-21T02:22:14;9.93;;;7.82;;
14001;SDS011;7076;51.280;12.584;2022-08-21T02:27:17;8.40;;;7.50;;
14001;SDS011;7076;51.280;12.584;2022-08-21T02:32:26;8.07;;;7.22;;
14001;SDS011;7076;51.280;12.584;2022-08-21T02:37:30;8.52;;;7.35;;
14001;SDS011;7076;51.280;12.584;2022-08-21T02:42:33;6.82;;;6.13;;
14001;SDS011;7076;51.280;12.584;2022-08-21T02:47:36;8.40;;;6.80;;
14001;SDS011;7076;51.280;12.584;2022-08-21T02:52:40;7.72;;;6.75;;
14001;SDS011;7076;51.280;12.584;2022-08-21T02:57:43;8.23;;;6.75;;
14001;SDS011;7076;51.280;12.584;2022-08-21T03:02:46;7.30;;;6.57;;
14001;SDS011;7076;51.280;12.584;2022-08-21T03:07:51;7.18;;;6.47;;
14001;SDS011;7076;51.280;12.584;2022-08-21T03:12:54;7.57;;;6.80;;
14001;SDS011;7076;51.280;12.584;2022-08-21T03:17:57;8.85;;;6.00;;
14001;SDS011;7076;51.280;12.584;2022-08-21T03:23:02;7.40;;;6.70;;
14001;SDS011;7076;51.280;12.584;2022-08-21T03:28:16;6.72;;;6.03;;
14001;SDS011;7076;51.280;12.584;2022-08-21T03:33:21;6.30;;;5.65;;
14001;SDS011;7076;51.280;12.584;2022-08-21T03:38:25;8.57;;;6.00;;
14001;SDS011;7076;51.280;12.584;2022-08-21T03:43:29;9.77;;;6.50;;
14001;SDS011;7076;51.280;12.584;2022-08-21T03:48:34;9.35;;;5.57;;
14001;SDS011;7076;51.280;12.584;2022-08-21T03:53:39;7.82;;;5.93;;
14001;SDS011;7076;51.280;12.584;2022-08-21T03:58:41;6.40;;;5.57;;
14001;SDS011;7076;51.280;12.584;2022-08-21T04:03:45;6.35;;;4.70;;
14001;SDS011;7076;51.280;12.584;2022-08-21T04:08:49;6.45;;;4.85;;
14001;SDS011;7076;51.280;12.584;2022-08-21T04:13:52;5.93;;;4.65;;
14001;SDS011;7076;51.280;12.584;2022-08-21T04:18:54;5.35;;;4.53;;
14001;SDS011;7076;51.280;12.584;2022-08-21T04:23:58;5.82;;;4.57;;
14001;SDS011;7076;51.280;12.584;2022-08-21T04:29:02;5.45;;;4.90;;
14001;SDS011;7076;51.280;12.584;2022-08-21T04:34:06;5.88;;;4.75;;
14001;SDS011;7076;51.280;12.584;2022-08-21T04:39:10;5.28;;;4.30;;
14001;SDS011;7076;51.280;12.584;2022-08-21T04:44:12;8.85;;;4.07;;
14001;SDS011;7076;51.280;12.584;2022-08-21T04:49:16;3.92;;;3.63;;
14001;SDS011;7076;51.280;12.584;2022-08-21T04:54:20;4.22;;;3.83;;
14001;SDS011;7076;51.280;12.584;2022-08-21T04:59:25;4.05;;;3.50;;
14001;SDS011;7076;51.280;12.584;2022-08-21T05:04:29;5.78;;;3.83;;
14001;SDS011;7076;51.280;12.584;2022-08-21T05:09:34;5.28;;;3.40;;
14001;SDS011;7076;51.280;12.584;2022-08-21T05:14:39;3.60;;;2.95;;
14001;SDS011;7076;51.280;12.584;2022-08-21T05:19:43;3.97;;;3.42;;
14001;SDS011;7076;51.280;12.584;2022-08-21T05:24:47;5.13;;;3.03;;
14001;SDS011;7076;51.280;12.584;2022-08-21T05:29:50;3.67;;;3.22;;
14001;SDS011;7076;51.280;12.584;2022-08-21T05:34:53;6.75;;;2.92;;
14001;SDS011;7076;51.280;12.584;2022-08-21T05:39:58;2.92;;;2.58;;
14001;SDS011;7076;51.280;12.584;2022-08-21T05:45:21;5.93;;;2.80;;
14001;SDS011;7076;51.280;12.584;2022-08-21T05:50:44;4.32;;;2.40;;
14001;SDS011;7076;51.280;12.584;2022-08-21T05:55:49;3.78;;;2.47;;
14001;SDS011;7076;51.280;12.584;2022-08-21T06:00:52;2.25;;;1.92;;
14001;SDS011;7076;51.280;12.584;2022-08-21T06:05:54;4.25;;;2.35;;
14001;SDS011;7076;51.280;12.584;2022-08-21T06:10:59;5.20;;;1.95;;
14001;SDS011;7076;51.280;12.584;2022-08-21T06:16:04;4.68;;;2.17;;
14001;SDS011;7076;51.280;12.584;2022-08-21T06:21:08;3.97;;;1.92;;
14001;SDS011;7076;51.280;12.584;2022-08-21T06:26:14;4.03;;;1.90;;
14001;SDS011;7076;51.280;12.584;2022-08-21T06:31:17;4.32;;;3.30;;
14001;SDS011;7076;51.280;12.584;2022-08-21T06:36:21;2.60;;;1.75;;
14001;SDS011;7076;51.280;12.584;2022-08-21T06:41:26;4.10;;;1.80;;
14001;SDS011;7076;51.280;12.584;2022-08-21T06:46:29;3.22;;;1.83;;
14001;SDS011;7076;51.280;12.584;2022-08-21T06:51:32;2.53;;;2.10;;
14001;SDS011;7076;51.280;12.584;2022-08-21T06:56:36;3.92;;;1.70;;
14001;SDS011;7076;51.280;12.584;2022-08-21T07:01:39;5.85;;;2.10;;
14001;SDS011;7076;51.280;12.584;2022-08-21T07:06:42;3.20;;;1.85;;
14001;SDS011;7076;51.280;12.584;2022-08-21T07:11:47;3.50;;;2.10;;
14001;SDS011;7076;51.280;12.584;2022-08-21T07:16:53;4.35;;;2.30;;
14001;SDS011;7076;51.280;12.584;2022-08-21T07:21:57;4.68;;;2.20;;
14001;SDS011;7076;51.280;12.584;2022-08-21T07:27:02;4.18;;;2.10;;
14001;SDS011;7076;51.280;12.584;2022-08-21T07:32:10;2.63;;;2.08;;
14001;SDS011;7076;51.280;12.584;2022-08-21T07:37:13;3.38;;;2.33;;
14001;SDS011;7076;51.280;12.584;2022-08-21T07:42:19;3.47;;;1.90;;
14001;SDS011;7076;51.280;12.584;2022-08-21T07:47:22;5.95;;;2.47;;
14001;SDS011;7076;51.280;12.584;2022-08-21T07:52:43;2.83;;;1.88;;
14001;SDS011;7076;51.280;12.584;2022-08-21T07:57:47;2.38;;;1.77;;
14001;SDS011;7076;51.280;12.584;2022-08-21T08:02:50;4.38;;;2.13;;
14001;SDS011;7076;51.280;12.584;2022-08-21T08:07:56;3.63;;;1.80;;
14001;SDS011;7076;51.280;12.584;2022-08-21T08:13:00;3.60;;;2.03;;
14001;SDS011;7076;51.280;12.584;2022-08-21T08:18:03;5.35;;;2.00;;
14001;SDS011;7076;51.280;12.584;2022-08-21T08:23:06;2.70;;;2.00;;
14001;SDS011;7076;51.280;12.584;2022-08-21T08:28:10;3.85;;;1.95;;
14001;SDS011;7076;51.280;12.584;2022-08-21T08:33:18;4.55;;;1.90;;
14001;SDS011;7076;51.280;12.584;2022-08-21T08:38:22;2.50;;;1.58;;
14001;SDS011;7076;51.280;12.584;2022-08-21T08:43:27;4.32;;;1.85;;
14001;SDS011;7076;51.280;12.584;2022-08-21T08:48:35;3.20;;;2.25;;
14001;SDS011;7076;51.280;12.584;2022-08-21T08:53:54;4.43;;;1.95;;
14001;SDS011;7076;51.280;12.584;2022-08-21T08:59:02;4.18;;;2.33;;
14001;SDS011;7076;51.280;12.584;2022-08-21T09:04:10;5.53;;;2.25;;
14001;SDS011;7076;51.280;12.584;2022-08-21T09:09:18;4.15;;;1.98;;
14001;SDS011;7076;51.280;12.584;2022-08-21T09:14:29;2.70;;;1.40;;
14001;SDS011;7076;51.280;12.584;2022-08-21T09:19:46;7.20;;;3.65;;
14001;SDS011;7076;51.280;12.584;2022-08-21T09:25:02;5.00;;;1.73;;
14001;SDS011;7076;51.280;12.584;2022-08-21T09:30:11;2.10;;;1.23;;
14001;SDS011;7076;51.280;12.584;2022-08-21T09:35:15;1.50;;;1.05;;
14001;SDS011;7076;51.280;12.584;2022-08-21T09:40:31;2.85;;;1.20;;
14001;SDS011;7076;51.280;12.584;2022-08-21T09:45:37;2.80;;;1.30;;
14001;SDS011;7076;51.280;12.584;2022-08-21T09:50:41;4.20;;;1.67;;
14001;SDS011;7076;51.280;12.584;2022-08-21T09:55:49;6.43;;;1.40;;
14001;SDS011;7076;51.280;12.584;2022-08-21T10:01:14;2.03;;;1.00;;
14001;SDS011;7076;51.280;12.584;2022-08-21T10:06:22;2.78;;;1.10;;
14001;SDS011;7076;51.280;12.584;2022-08-21T10:11:27;3.08;;;1.17;;
14001;SDS011;7076;51.280;12.584;2022-08-21T10:16:34;2.63;;;1.08;;
14001;SDS011;7076;51.280;12.584;2022-08-21T10:21:43;2.95;;;1.15;;
14001;SDS011;7076;51.280;12.584;2022-08-21T10:26:52;8.20;;;1.65;;
14001;SDS011;7076;51.280;12.584;2022-08-21T10:32:00;2.95;;;1.30;;
14001;SDS011;7076;51.280;12.584;2022-08-21T10:37:30;3.30;;;1.10;;
14001;SDS011;7076;51.280;12.584;2022-08-21T10:42:40;1.92;;;1.15;;
14001;SDS011;7076;51.280;12.584;2022-08-21T10:47:51;1.92;;;1.10;;
14001;SDS011;7076;51.280;12.584;2022-08-21T10:53:05;5.22;;;1.73;;
14001;SDS011;7076;51.280;12.584;2022-08-21T10:58:18;2.83;;;1.17;;
14001;SDS011;7076;51.280;12.584;2022-08-21T11:03:26;5.20;;;1.20;;
14001;SDS011;7076;51.280;12.584;2022-08-21T11:08:33;3.35;;;1.38;;
14001;SDS011;7076;51.280;12.584;2022-08-21T11:13:38;2.15;;;1.25;;
14001;SDS011;7076;51.280;12.584;2022-08-21T11:18:47;3.72;;;1.10;;
14001;SDS011;7076;51.280;12.584;2022-08-21T11:23:53;3.65;;;1.20;;
14001;SDS011;7076;51.280;12.584;2022-08-21T11:29:00;3.92;;;1.17;;
14001;SDS011;7076;51.280;12.584;2022-08-21T11:34:12;2.75;;;1.10;;
14001;SDS011;7076;51.280;12.584;2022-08-21T11:39:21;6.00;;;1.38;;
14001;SDS011;7076;51.280;12.584;2022-08-21T11:44:27;5.05;;;2.00;;
14001;SDS011;7076;51.280;12.584;2022-08-21T11:49:45;1.75;;;1.10;;
14001;SDS011;7076;51.280;12.584;2022-08-21T11:54:52;4.60;;;1.35;;
14001;SDS011;7076;51.280;12.584;2022-08-21T12:00:01;5.63;;;1.30;;
14001;SDS011;7076;51.280;12.584;2022-08-21T12:05:23;3.78;;;1.00;;
14001;SDS011;7076;51.280;12.584;2022-08-21T12:10:34;3.58;;;1.25;;
14001;SDS011;7076;51.280;12.584;2022-08-21T12:15:38;4.30;;;1.50;;
14001;SDS011;7076;51.280;12.584;2022-08-21T12:20:44;3.17;;;1.00;;
14001;SDS011;7076;51.280;12.584;2022-08-21T12:31:23;4.93;;;1.40;;
14001;SDS011;7076;51.280;12.584;2022-08-21T12:36:35;4.68;;;1.13;;
14001;SDS011;7076;51.280;12.584;2022-08-21T12:41:44;2.00;;;0.73;;
14001;SDS011;7076;51.280;12.584;2022-08-21T12:46:51;3.67;;;1.30;;
14001;SDS011;7076;51.280;12.584;2022-08-21T12:51:57;2.55;;;0.90;;
14001;SDS011;7076;51.280;12.584;2022-08-21T12:57:05;2.67;;;1.20;;
14001;SDS011;7076;51.280;12.584;2022-08-21T13:02:13;3.28;;;0.93;;
14001;SDS011;7076;51.280;12.584;2022-08-21T13:07:22;4.22;;;1.05;;
14001;SDS011;7076;51.280;12.584;2022-08-21T13:12:28;3.00;;;0.93;;
14001;SDS011;7076;51.280;12.584;2022-08-21T13:17:34;2.70;;;1.30;;
14001;SDS011;7076;51.280;12.584;2022-08-21T13:22:43;3.00;;;1.20;;
14001;SDS011;7076;51.280;12.584;2022-08-21T13:27:56;2.10;;;0.95;;
14001;SDS011;7076;51.280;12.584;2022-08-21T13:33:02;3.15;;;1.15;;
14001;SDS011;7076;51.280;12.584;2022-08-21T13:38:15;2.58;;;1.00;;
14001;SDS011;7076;51.280;12.584;2022-08-21T13:43:18;2.83;;;0.90;;
14001;SDS011;7076;51.280;12.584;2022-08-21T13:48:24;2.92;;;0.98;;
14001;SDS011;7076;51.280;12.584;2022-08-21T13:53:30;2.70;;;1.08;;
14001;SDS011;7076;51.280;12.584;2022-08-21T13:58:41;4.00;;;1.20;;
14001;SDS011;7076;51.280;12.584;2022-08-21T14:03:45;3.17;;;0.90;;
14001;SDS011;7076;51.280;12.584;2022-08-21T14:08:52;5.35;;;1.33;;
14001;SDS011;7076;51.280;12.584;2022-08-21T14:13:56;1.90;;;0.98;;
14001;SDS011;7076;51.280;12.584;2022-08-21T14:19:08;2.25;;;1.02;;
14001;SDS011;7076;51.280;12.584;2022-08-21T14:24:14;3.83;;;1.20;;
14001;SDS011;7076;51.280;12.584;2022-08-21T14:29:32;2.10;;;1.00;;
14001;SDS011;7076;51.280;12.584;2022-08-21T14:34:36;2.58;;;1.10;;
14001;SDS011;7076;51.280;12.584;2022-08-21T14:39:40;2.40;;;1.13;;
14001;SDS011;7076;51.280;12.584;2022-08-21T14:44:45;1.67;;;1.10;;
14001;SDS011;7076;51.280;12.584;2022-08-21T14:49:48;3.08;;;0.95;;
14001;SDS011;7076;51.280;12.584;2022-08-21T14:54:55;1.55;;;1.00;;
14001;SDS011;7076;51.280;12.584;2022-08-21T14:59:58;4.88;;;1.20;;
14001;SDS011;7076;51.280;12.584;2022-08-21T15:05:02;3.10;;;1.33;;
14001;SDS011;7076;51.280;12.584;2022-08-21T15:10:07;2.83;;;1.00;;
14001;SDS011;7076;51.280;12.584;2022-08-21T15:15:11;5.45;;;1.10;;
14001;SDS011;7076;51.280;12.584;2022-08-21T15:20:18;2.42;;;0.90;;
14001;SDS011;7076;51.280;12.584;2022-08-21T15:25:22;2.25;;;1.00;;
14001;SDS011;7076;51.280;12.584;2022-08-21T15:30:25;2.92;;;1.00;;
14001;SDS011;7076;51.280;12.584;2022-08-21T15:35:28;1.77;;;1.38;;
14001;SDS011;7076;51.280;12.584;2022-08-21T15:40:37;3.10;;;1.35;;
14001;SDS011;7076;51.280;12.584;2022-08-21T15:45:52;3.33;;;1.10;;
14001;SDS011;7076;51.280;12.584;2022-08-21T15:50:57;3.25;;;1.15;;
14001;SDS011;7076;51.280;12.584;2022-08-21T15:56:03;2.17;;;0.90;;
14001;SDS011;7076;51.280;12.584;2022-08-21T16:01:08;1.67;;;1.02;;
14001;SDS011;7076;51.280;12.584;2022-08-21T16:06:18;2.20;;;1.17;;
14001;SDS011;7076;51.280;12.584;2022-08-21T16:11:43;1.48;;;0.95;;
14001;SDS011;7076;51.280;12.584;2022-08-21T16:16:46;2.50;;;0.98;;
14001;SDS011;7076;51.280;12.584;2022-08-21T16:21:49;3.20;;;1.08;;
14001;SDS011;7076;51.280;12.584;2022-08-21T16:26:53;2.15;;;0.98;;
14001;SDS011;7076;51.280;12.584;2022-08-21T16:31:58;6.35;;;1.10;;
14001;SDS011;7076;51.280;12.584;2022-08-21T16:37:01;2.65;;;1.08;;
14001;SDS011;7076;51.280;12.584;2022-08-21T16:42:06;3.58;;;1.00;;
14001;SDS011;7076;51.280;12.584;2022-08-21T16:47:15;1.90;;;1.00;;
14001;SDS011;7076;51.280;12.584;2022-08-21T16:52:27;3.92;;;1.00;;
14001;SDS011;7076;51.280;12.584;2022-08-21T16:57:31;2.95;;;1.20;;
14001;SDS011;7076;51.280;12.584;2022-08-21T17:02:35;2.50;;;1.10;;
14001;SDS011;7076;51.280;12.584;2022-08-21T17:07:39;2.88;;;1.00;;
14001;SDS011;7076;51.280;12.584;2022-08-21T17:12:46;2.70;;;1.10;;
14001;SDS011;7076;51.280;12.584;2022-08-21T17:17:56;1.23;;;0.82;;
14001;SDS011;7076;51.280;12.584;2022-08-21T17:22:58;2.75;;;1.13;;
14001;SDS011;7076;51.280;12.584;2022-08-21T17:28:03;3.80;;;1.70;;
14001;SDS011;7076;51.280;12.584;2022-08-21T17:33:06;2.05;;;1.40;;
14001;SDS011;7076;51.280;12.584;2022-08-21T17:38:09;3.80;;;1.15;;
14001;SDS011;7076;51.280;12.584;2022-08-21T17:43:16;3.13;;;1.23;;
14001;SDS011;7076;51.280;12.584;2022-08-21T17:48:19;3.35;;;1.65;;
14001;SDS011;7076;51.280;12.584;2022-08-21T17:53:26;2.83;;;1.70;;
14001;SDS011;7076;51.280;12.584;2022-08-21T17:58:30;2.45;;;1.40;;
14001;SDS011;7076;51.280;12.584;2022-08-21T18:03:35;6.95;;;1.20;;
14001;SDS011;7076;51.280;12.584;2022-08-21T18:08:38;4.65;;;1.17;;
14001;SDS011;7076;51.280;12.584;2022-08-21T18:13:43;2.60;;;1.40;;
14001;SDS011;7076;51.280;12.584;2022-08-21T18:18:46;3.00;;;1.38;;
14001;SDS011;7076;51.280;12.584;2022-08-21T18:23:51;3.42;;;1.10;;
14001;SDS011;7076;51.280;12.584;2022-08-21T18:28:57;2.90;;;1.05;;
14001;SDS011;7076;51.280;12.584;2022-08-21T18:34:04;4.25;;;0.95;;
14001;SDS011;7076;51.280;12.584;2022-08-21T18:39:10;3.33;;;1.38;;
14001;SDS011;7076;51.280;12.584;2022-08-21T18:44:34;4.80;;;2.50;;
14001;SDS011;7076;51.280;12.584;2022-08-21T18:49:37;3.25;;;1.80;;
14001;SDS011;7076;51.280;12.584;2022-08-21T18:55:00;4.20;;;1.77;;
14001;SDS011;7076;51.280;12.584;2022-08-21T19:00:17;2.10;;;1.10;;
14001;SDS011;7076;51.280;12.584;2022-08-21T19:05:21;4.55;;;1.30;;
14001;SDS011;7076;51.280;12.584;2022-08-21T19:10:26;1.90;;;1.35;;
14001;SDS011;7076;51.280;12.584;2022-08-21T19:15:52;2.47;;;1.40;;
14001;SDS011;7076;51.280;12.584;2022-08-21T19:20:55;3.30;;;1.60;;
14001;SDS011;7076;51.280;12.584;2022-08-21T19:25:59;2.33;;;1.30;;
14001;SDS011;7076;51.280;12.584;2022-08-21T19:31:05;2.63;;;1.38;;
14001;SDS011;7076;51.280;12.584;2022-08-21T19:36:12;2.03;;;1.00;;
14001;SDS011;7076;51.280;12.584;2022-08-21T19:41:16;2.97;;;1.40;;
14001;SDS011;7076;51.280;12.584;2022-08-21T19:46:22;4.03;;;1.23;;
14001;SDS011;7076;51.280;12.584;2022-08-21T19:51:27;3.63;;;1.42;;
14001;SDS011;7076;51.280;12.584;2022-08-21T19:56:31;3.00;;;1.40;;
14001;SDS011;7076;51.280;12.584;2022-08-21T20:01:36;2.90;;;1.70;;
14001;SDS011;7076;51.280;12.584;2022-08-21T20:06:40;3.70;;;1.75;;
14001;SDS011;7076;51.280;12.584;2022-08-21T20:11:44;3.67;;;1.92;;
14001;SDS011;7076;51.280;12.584;2022-08-21T20:16:51;4.53;;;2.10;;
14001;SDS011;7076;51.280;12.584;2022-08-21T20:21:54;3.17;;;2.13;;
14001;SDS011;7076;51.280;12.584;2022-08-21T20:26:58;4.25;;;2.85;;
14001;SDS011;7076;51.280;12.584;2022-08-21T20:32:08;4.50;;;2.92;;
14001;SDS011;7076;51.280;12.584;2022-08-21T20:37:12;4.53;;;2.70;;
14001;SDS011;7076;51.280;12.584;2022-08-21T20:42:36;8.52;;;3.05;;
14001;SDS011;7076;51.280;12.584;2022-08-21T20:47:41;8.27;;;4.05;;
14001;SDS011;7076;51.280;12.584;2022-08-21T20:52:45;11.13;;;6.07;;
14001;SDS011;7076;51.280;12.584;2022-08-21T20:57:54;12.23;;;6.75;;
14001;SDS011;7076;51.280;12.584;2022-08-21T21:03:04;14.10;;;7.45;;
14001;SDS011;7076;51.280;12.584;2022-08-21T21:08:11;9.15;;;6.10;;
14001;SDS011;7076;51.280;12.584;2022-08-21T21:13:19;9.15;;;5.30;;
14001;SDS011;7076;51.280;12.584;2022-08-21T21:18:28;8.30;;;4.38;;
14001;SDS011;7076;51.280;12.584;2022-08-21T21:23:36;8.52;;;4.50;;
14001;SDS011;7076;51.280;12.584;2022-08-21T21:28:44;9.23;;;4.07;;
14001;SDS011;7076;51.280;12.584;2022-08-21T21:33:52;4.60;;;3.13;;
14001;SDS011;7076;51.280;12.584;2022-08-21T21:39:00;4.90;;;2.92;;
14001;SDS011;7076;51.280;12.584;2022-08-21T21:44:16;4.80;;;3.10;;
14001;SDS011;7076;51.280;12.584;2022-08-21T21:49:34;5.13;;;2.92;;
14001;SDS011;7076;51.280;12.584;2022-08-21T21:55:02;6.57;;;2.90;;
14001;SDS011;7076;51.280;12.584;2022-08-21T22:00:11;7.80;;;3.75;;
14001;SDS011;7076;51.280;12.584;2022-08-21T22:05:20;4.35;;;2.80;;
14001;SDS011;7076;51.280;12.584;2022-08-21T22:10:30;3.70;;;2.40;;
14001;SDS011;7076;51.280;12.584;2022-08-21T22:15:44;5.63;;;2.10;;
14001;SDS011;7076;51.280;12.584;2022-08-21T22:20:49;3.28;;;2.03;;
14001;SDS011;7076;51.280;12.584;2022-08-21T22:25:58;6.07;;;2.42;;
14001;SDS011;7076;51.280;12.584;2022-08-21T22:31:13;4.50;;;2.13;;
14001;SDS011;7076;51.280;12.584;2022-08-21T22:36:22;3.95;;;2.05;;
14001;SDS011;7076;51.280;12.584;2022-08-21T22:41:27;4.35;;;2.03;;
14001;SDS011;7076;51.280;12.584;2022-08-21T22:46:34;3.25;;;1.90;;
14001;SDS011;7076;51.280;12.584;2022-08-21T22:51:41;6.03;;;2.05;;
14001;SDS011;7076;51.280;12.584;2022-08-21T22:56:47;2.95;;;1.85;;
14001;SDS011;7076;51.280;12.584;2022-08-21T23:02:01;3.08;;;2.10;;
14001;SDS011;7076;51.280;12.584;2022-08-21T23:07:13;3.05;;;1.45;;
14001;SDS011;7076;51.280;12.584;2022-08-21T23:12:46;3.42;;;1.52;;
14001;SDS011;7076;51.280;12.584;2022-08-21T23:17:51;6.40;;;2.00;;
14001;SDS011;7076;51.280;12.584;2022-08-21T23:23:05;3.92;;;1.70;;
14001;SDS011;7076;51.280;12.584;2022-08-21T23:28:37;5.70;;;1.83;;
14001;SDS011;7076;51.280;12.584;2022-08-21T23:33:59;4.82;;;1.92;;
14001;SDS011;7076;51.280;12.584;2022-08-21T23:39:11;4.95;;;1.98;;
14001;SDS011;7076;51.280;12.584;2022-08-21T23:44:27;4.93;;;1.63;;
14001;SDS011;7076;51.280;12.584;2022-08-21T23:49:45;5.00;;;1.70;;
14001;SDS011;7076;51.280;12.584;2022-08-21T23:54:58;3.72;;;1.60;;
